< < Back
Terminal Aerodrome Forecast


Current Version              Previous Versions:   1  2  3  4  5  6  7  8  9  

Terminal Aerodrome Forecast

645
FTUS42 KMLB 252000 AAA
TAFMCO
TAF AMD
KMCO 252000Z 2520/2618 VRB06KT 3SM SHRA BR FEW008 SCT015 OVC045
      TEMPO 2520/2524 1SM TSRA BKN015CB OVC020
     FM260200 19010KT P6SM VCSH BKN010
     FM260900 32016G24KT P6SM VCSH BKN025=



Latest METAR

276
SAUS70 KWBC 260100 RRA
MTRMCO
METAR KMCO 260053Z 07006KT 5SM -RA BR FEW008 BKN025 OVC055 21/21 A2996
RMK AO2 RAB2357 SLP142 P0003 T02110206


USA.gov is the U.S. government's official web portal to all federal, state and local government web resources and services.